sensor_id;sensor_type;location;lat;lon;timestamp;P1;durP1;ratioP1;P2;durP2;ratioP2
56114;SDS011;41988;53.020;6.576;2022-10-13T00:01:09;8.05;;;4.38;;
56114;SDS011;41988;53.020;6.576;2022-10-13T00:03:54;15.10;;;5.22;;
56114;SDS011;41988;53.020;6.576;2022-10-13T00:06:38;10.15;;;4.32;;
56114;SDS011;41988;53.020;6.576;2022-10-13T00:09:23;8.45;;;4.30;;
56114;SDS011;41988;53.020;6.576;2022-10-13T00:12:07;9.07;;;4.40;;
56114;SDS011;41988;53.020;6.576;2022-10-13T00:14:52;8.45;;;4.10;;
56114;SDS011;41988;53.020;6.576;2022-10-13T00:17:36;8.70;;;3.80;;
56114;SDS011;41988;53.020;6.576;2022-10-13T00:20:21;12.35;;;4.45;;
56114;SDS011;41988;53.020;6.576;2022-10-13T00:23:05;9.82;;;4.63;;
56114;SDS011;41988;53.020;6.576;2022-10-13T00:25:51;8.70;;;3.97;;
56114;SDS011;41988;53.020;6.576;2022-10-13T00:28:36;8.88;;;4.97;;
56114;SDS011;41988;53.020;6.576;2022-10-13T00:31:22;9.45;;;4.63;;
56114;SDS011;41988;53.020;6.576;2022-10-13T00:34:07;11.10;;;4.38;;
56114;SDS011;41988;53.020;6.576;2022-10-13T00:36:52;10.23;;;3.95;;
56114;SDS011;41988;53.020;6.576;2022-10-13T00:39:37;7.72;;;3.70;;
56114;SDS011;41988;53.020;6.576;2022-10-13T00:42:21;12.00;;;4.20;;
56114;SDS011;41988;53.020;6.576;2022-10-13T00:45:23;7.30;;;4.22;;
56114;SDS011;41988;53.020;6.576;2022-10-13T00:48:07;9.85;;;4.32;;
56114;SDS011;41988;53.020;6.576;2022-10-13T00:50:52;9.85;;;4.47;;
56114;SDS011;41988;53.020;6.576;2022-10-13T00:53:37;10.05;;;4.40;;
56114;SDS011;41988;53.020;6.576;2022-10-13T00:56:23;8.73;;;4.18;;
56114;SDS011;41988;53.020;6.576;2022-10-13T00:59:11;9.32;;;3.78;;
56114;SDS011;41988;53.020;6.576;2022-10-13T01:01:57;14.60;;;4.95;;
56114;SDS011;41988;53.020;6.576;2022-10-13T01:04:44;9.93;;;3.97;;
56114;SDS011;41988;53.020;6.576;2022-10-13T01:07:29;7.70;;;4.45;;
56114;SDS011;41988;53.020;6.576;2022-10-13T01:10:15;14.50;;;4.82;;
56114;SDS011;41988;53.020;6.576;2022-10-13T01:16:22;12.00;;;4.20;;
56114;SDS011;41988;53.020;6.576;2022-10-13T01:28:32;15.80;;;4.32;;
56114;SDS011;41988;53.020;6.576;2022-10-13T01:34:09;11.57;;;4.55;;
56114;SDS011;41988;53.020;6.576;2022-10-13T01:45:27;13.75;;;4.43;;
56114;SDS011;41988;53.020;6.576;2022-10-13T01:48:13;9.52;;;4.05;;
56114;SDS011;41988;53.020;6.576;2022-10-13T01:50:58;8.40;;;4.47;;
56114;SDS011;41988;53.020;6.576;2022-10-13T01:53:44;8.65;;;4.40;;
56114;SDS011;41988;53.020;6.576;2022-10-13T01:56:30;12.23;;;4.45;;
56114;SDS011;41988;53.020;6.576;2022-10-13T01:59:14;15.18;;;5.22;;
56114;SDS011;41988;53.020;6.576;2022-10-13T02:02:07;12.70;;;4.32;;
56114;SDS011;41988;53.020;6.576;2022-10-13T02:08:16;11.48;;;4.32;;
56114;SDS011;41988;53.020;6.576;2022-10-13T02:14:06;10.98;;;5.05;;
56114;SDS011;41988;53.020;6.576;2022-10-13T02:16:53;12.63;;;4.45;;
56114;SDS011;41988;53.020;6.576;2022-10-13T02:19:39;8.50;;;4.43;;
56114;SDS011;41988;53.020;6.576;2022-10-13T02:22:25;15.45;;;4.25;;
56114;SDS011;41988;53.020;6.576;2022-10-13T02:25:10;7.45;;;4.00;;
56114;SDS011;41988;53.020;6.576;2022-10-13T02:27:56;13.63;;;4.78;;
56114;SDS011;41988;53.020;6.576;2022-10-13T02:30:42;9.80;;;4.25;;
56114;SDS011;41988;53.020;6.576;2022-10-13T02:33:28;11.13;;;5.88;;
56114;SDS011;41988;53.020;6.576;2022-10-13T02:36:12;17.45;;;4.72;;
56114;SDS011;41988;53.020;6.576;2022-10-13T02:38:57;9.15;;;4.53;;
56114;SDS011;41988;53.020;6.576;2022-10-13T02:41:41;10.15;;;4.88;;
56114;SDS011;41988;53.020;6.576;2022-10-13T02:44:25;11.02;;;4.95;;
56114;SDS011;41988;53.020;6.576;2022-10-13T02:47:10;12.32;;;5.03;;
56114;SDS011;41988;53.020;6.576;2022-10-13T02:49:55;10.02;;;4.43;;
56114;SDS011;41988;53.020;6.576;2022-10-13T02:52:40;13.55;;;5.10;;
56114;SDS011;41988;53.020;6.576;2022-10-13T02:55:24;11.63;;;5.32;;
56114;SDS011;41988;53.020;6.576;2022-10-13T02:58:09;10.48;;;4.60;;
56114;SDS011;41988;53.020;6.576;2022-10-13T03:00:53;12.10;;;4.70;;
56114;SDS011;41988;53.020;6.576;2022-10-13T03:03:38;11.32;;;4.75;;
56114;SDS011;41988;53.020;6.576;2022-10-13T03:06:23;11.23;;;4.28;;
56114;SDS011;41988;53.020;6.576;2022-10-13T03:09:07;9.02;;;5.20;;
56114;SDS011;41988;53.020;6.576;2022-10-13T03:11:52;12.05;;;4.50;;
56114;SDS011;41988;53.020;6.576;2022-10-13T03:14:36;11.35;;;4.95;;
56114;SDS011;41988;53.020;6.576;2022-10-13T03:17:21;16.13;;;4.43;;
56114;SDS011;41988;53.020;6.576;2022-10-13T03:20:06;12.80;;;5.43;;
56114;SDS011;41988;53.020;6.576;2022-10-13T03:22:51;10.32;;;5.38;;
56114;SDS011;41988;53.020;6.576;2022-10-13T03:25:35;12.98;;;4.90;;
56114;SDS011;41988;53.020;6.576;2022-10-13T03:28:20;9.48;;;4.53;;
56114;SDS011;41988;53.020;6.576;2022-10-13T03:31:06;8.90;;;4.88;;
56114;SDS011;41988;53.020;6.576;2022-10-13T03:33:51;12.05;;;4.18;;
56114;SDS011;41988;53.020;6.576;2022-10-13T03:36:36;8.90;;;4.70;;
56114;SDS011;41988;53.020;6.576;2022-10-13T03:39:20;10.02;;;4.63;;
56114;SDS011;41988;53.020;6.576;2022-10-13T03:42:05;14.50;;;5.07;;
56114;SDS011;41988;53.020;6.576;2022-10-13T03:44:50;14.82;;;4.72;;
56114;SDS011;41988;53.020;6.576;2022-10-13T03:47:35;15.90;;;4.50;;
56114;SDS011;41988;53.020;6.576;2022-10-13T03:50:19;9.70;;;4.68;;
56114;SDS011;41988;53.020;6.576;2022-10-13T03:53:04;9.07;;;4.28;;
56114;SDS011;41988;53.020;6.576;2022-10-13T03:55:49;12.52;;;5.35;;
56114;SDS011;41988;53.020;6.576;2022-10-13T03:58:34;9.57;;;5.07;;
56114;SDS011;41988;53.020;6.576;2022-10-13T04:01:19;10.75;;;6.20;;
56114;SDS011;41988;53.020;6.576;2022-10-13T04:04:04;10.55;;;5.72;;
56114;SDS011;41988;53.020;6.576;2022-10-13T04:06:50;11.55;;;5.88;;
56114;SDS011;41988;53.020;6.576;2022-10-13T04:09:34;12.25;;;5.85;;
56114;SDS011;41988;53.020;6.576;2022-10-13T04:12:19;12.93;;;6.05;;
56114;SDS011;41988;53.020;6.576;2022-10-13T04:15:03;11.48;;;5.65;;
56114;SDS011;41988;53.020;6.576;2022-10-13T04:17:49;13.35;;;5.85;;
56114;SDS011;41988;53.020;6.576;2022-10-13T04:20:39;12.43;;;5.45;;
56114;SDS011;41988;53.020;6.576;2022-10-13T04:23:24;11.45;;;5.18;;
56114;SDS011;41988;53.020;6.576;2022-10-13T04:26:16;13.32;;;5.88;;
56114;SDS011;41988;53.020;6.576;2022-10-13T04:29:03;8.82;;;4.45;;
56114;SDS011;41988;53.020;6.576;2022-10-13T04:31:48;12.48;;;5.47;;
56114;SDS011;41988;53.020;6.576;2022-10-13T04:34:32;12.75;;;5.13;;
56114;SDS011;41988;53.020;6.576;2022-10-13T04:37:17;12.07;;;5.53;;
56114;SDS011;41988;53.020;6.576;2022-10-13T04:40:02;15.07;;;6.30;;
56114;SDS011;41988;53.020;6.576;2022-10-13T04:42:47;12.32;;;6.38;;
56114;SDS011;41988;53.020;6.576;2022-10-13T04:45:31;13.77;;;5.85;;
56114;SDS011;41988;53.020;6.576;2022-10-13T04:48:15;11.63;;;5.13;;
56114;SDS011;41988;53.020;6.576;2022-10-13T04:51:01;8.43;;;4.78;;
56114;SDS011;41988;53.020;6.576;2022-10-13T04:53:46;12.52;;;5.32;;
56114;SDS011;41988;53.020;6.576;2022-10-13T04:56:30;11.60;;;5.45;;
56114;SDS011;41988;53.020;6.576;2022-10-13T04:59:15;11.48;;;5.30;;
56114;SDS011;41988;53.020;6.576;2022-10-13T05:02:00;14.60;;;6.35;;
56114;SDS011;41988;53.020;6.576;2022-10-13T05:04:46;12.52;;;6.65;;
56114;SDS011;41988;53.020;6.576;2022-10-13T05:07:30;13.32;;;5.63;;
56114;SDS011;41988;53.020;6.576;2022-10-13T05:10:15;13.48;;;6.00;;
56114;SDS011;41988;53.020;6.576;2022-10-13T05:12:59;12.30;;;5.68;;
56114;SDS011;41988;53.020;6.576;2022-10-13T05:15:44;11.05;;;5.40;;
56114;SDS011;41988;53.020;6.576;2022-10-13T05:18:28;15.60;;;6.07;;
56114;SDS011;41988;53.020;6.576;2022-10-13T05:21:20;9.07;;;5.32;;
56114;SDS011;41988;53.020;6.576;2022-10-13T05:24:05;11.57;;;5.72;;
56114;SDS011;41988;53.020;6.576;2022-10-13T05:26:51;12.32;;;6.30;;
56114;SDS011;41988;53.020;6.576;2022-10-13T05:29:36;15.95;;;5.78;;
56114;SDS011;41988;53.020;6.576;2022-10-13T05:32:21;13.32;;;6.88;;
56114;SDS011;41988;53.020;6.576;2022-10-13T05:35:05;13.77;;;5.78;;
56114;SDS011;41988;53.020;6.576;2022-10-13T05:37:50;13.93;;;6.47;;
56114;SDS011;41988;53.020;6.576;2022-10-13T05:40:35;13.23;;;5.80;;
56114;SDS011;41988;53.020;6.576;2022-10-13T05:43:19;13.18;;;6.00;;
56114;SDS011;41988;53.020;6.576;2022-10-13T05:46:04;12.27;;;5.90;;
56114;SDS011;41988;53.020;6.576;2022-10-13T05:48:49;14.40;;;6.25;;
56114;SDS011;41988;53.020;6.576;2022-10-13T05:51:34;13.82;;;7.03;;
56114;SDS011;41988;53.020;6.576;2022-10-13T05:54:21;12.95;;;6.25;;
56114;SDS011;41988;53.020;6.576;2022-10-13T05:59:54;12.52;;;5.80;;
56114;SDS011;41988;53.020;6.576;2022-10-13T06:02:42;14.10;;;6.57;;
56114;SDS011;41988;53.020;6.576;2022-10-13T06:05:31;12.88;;;6.47;;
56114;SDS011;41988;53.020;6.576;2022-10-13T06:08:16;17.85;;;6.75;;
56114;SDS011;41988;53.020;6.576;2022-10-13T06:11:01;14.75;;;6.72;;
56114;SDS011;41988;53.020;6.576;2022-10-13T06:13:45;12.93;;;7.05;;
56114;SDS011;41988;53.020;6.576;2022-10-13T06:16:30;15.63;;;6.00;;
56114;SDS011;41988;53.020;6.576;2022-10-13T06:19:14;15.18;;;6.57;;
56114;SDS011;41988;53.020;6.576;2022-10-13T06:21:59;13.27;;;6.13;;
56114;SDS011;41988;53.020;6.576;2022-10-13T06:24:43;17.90;;;6.82;;
56114;SDS011;41988;53.020;6.576;2022-10-13T06:27:28;15.02;;;6.25;;
56114;SDS011;41988;53.020;6.576;2022-10-13T06:30:14;13.90;;;6.05;;
56114;SDS011;41988;53.020;6.576;2022-10-13T06:32:58;14.25;;;6.13;;
56114;SDS011;41988;53.020;6.576;2022-10-13T06:35:43;14.13;;;5.97;;
56114;SDS011;41988;53.020;6.576;2022-10-13T06:38:27;12.15;;;6.38;;
56114;SDS011;41988;53.020;6.576;2022-10-13T06:41:12;17.02;;;5.82;;
56114;SDS011;41988;53.020;6.576;2022-10-13T06:43:59;12.18;;;5.97;;
56114;SDS011;41988;53.020;6.576;2022-10-13T06:46:43;15.20;;;6.30;;
56114;SDS011;41988;53.020;6.576;2022-10-13T06:49:28;12.93;;;6.22;;
56114;SDS011;41988;53.020;6.576;2022-10-13T06:52:13;11.85;;;5.82;;
56114;SDS011;41988;53.020;6.576;2022-10-13T06:54:57;12.90;;;6.32;;
56114;SDS011;41988;53.020;6.576;2022-10-13T06:57:42;17.08;;;6.68;;
56114;SDS011;41988;53.020;6.576;2022-10-13T07:00:26;11.60;;;5.80;;
56114;SDS011;41988;53.020;6.576;2022-10-13T07:03:11;12.90;;;6.05;;
56114;SDS011;41988;53.020;6.576;2022-10-13T07:05:59;11.43;;;6.43;;
56114;SDS011;41988;53.020;6.576;2022-10-13T07:08:44;12.70;;;6.30;;
56114;SDS011;41988;53.020;6.576;2022-10-13T07:11:29;11.95;;;6.20;;
56114;SDS011;41988;53.020;6.576;2022-10-13T07:14:13;17.13;;;6.40;;
56114;SDS011;41988;53.020;6.576;2022-10-13T07:16:58;13.85;;;5.95;;
56114;SDS011;41988;53.020;6.576;2022-10-13T07:19:43;14.02;;;6.97;;
56114;SDS011;41988;53.020;6.576;2022-10-13T07:22:30;13.82;;;5.65;;
56114;SDS011;41988;53.020;6.576;2022-10-13T07:25:15;11.80;;;6.03;;
56114;SDS011;41988;53.020;6.576;2022-10-13T07:27:59;13.80;;;7.18;;
56114;SDS011;41988;53.020;6.576;2022-10-13T07:30:44;15.75;;;6.18;;
56114;SDS011;41988;53.020;6.576;2022-10-13T07:33:28;11.02;;;5.80;;
56114;SDS011;41988;53.020;6.576;2022-10-13T07:36:13;15.60;;;6.32;;
56114;SDS011;41988;53.020;6.576;2022-10-13T07:38:59;10.05;;;4.97;;
56114;SDS011;41988;53.020;6.576;2022-10-13T07:41:44;13.50;;;5.88;;
56114;SDS011;41988;53.020;6.576;2022-10-13T07:44:28;11.10;;;6.32;;
56114;SDS011;41988;53.020;6.576;2022-10-13T07:47:13;16.95;;;7.07;;
56114;SDS011;41988;53.020;6.576;2022-10-13T07:49:57;11.10;;;4.90;;
56114;SDS011;41988;53.020;6.576;2022-10-13T07:52:42;15.80;;;5.15;;
56114;SDS011;41988;53.020;6.576;2022-10-13T07:55:27;12.75;;;6.28;;
56114;SDS011;41988;53.020;6.576;2022-10-13T07:58:12;9.88;;;5.50;;
56114;SDS011;41988;53.020;6.576;2022-10-13T08:00:57;12.23;;;5.93;;
56114;SDS011;41988;53.020;6.576;2022-10-13T08:03:42;11.80;;;6.20;;
56114;SDS011;41988;53.020;6.576;2022-10-13T08:06:27;11.70;;;5.78;;
56114;SDS011;41988;53.020;6.576;2022-10-13T08:09:12;15.77;;;6.60;;
56114;SDS011;41988;53.020;6.576;2022-10-13T08:11:57;15.80;;;6.53;;
56114;SDS011;41988;53.020;6.576;2022-10-13T08:14:42;18.08;;;6.85;;
56114;SDS011;41988;53.020;6.576;2022-10-13T08:17:26;14.57;;;6.30;;
56114;SDS011;41988;53.020;6.576;2022-10-13T08:20:11;17.13;;;6.90;;
56114;SDS011;41988;53.020;6.576;2022-10-13T08:22:56;16.25;;;6.43;;
56114;SDS011;41988;53.020;6.576;2022-10-13T08:25:41;14.43;;;7.03;;
56114;SDS011;41988;53.020;6.576;2022-10-13T08:28:27;15.10;;;6.47;;
56114;SDS011;41988;53.020;6.576;2022-10-13T08:31:12;13.75;;;6.03;;
56114;SDS011;41988;53.020;6.576;2022-10-13T08:33:56;13.45;;;6.93;;
56114;SDS011;41988;53.020;6.576;2022-10-13T08:36:41;11.02;;;6.45;;
56114;SDS011;41988;53.020;6.576;2022-10-13T08:39:26;10.13;;;6.22;;
56114;SDS011;41988;53.020;6.576;2022-10-13T08:42:17;14.52;;;6.95;;
56114;SDS011;41988;53.020;6.576;2022-10-13T08:45:03;12.75;;;6.45;;
56114;SDS011;41988;53.020;6.576;2022-10-13T08:47:50;15.30;;;7.38;;
56114;SDS011;41988;53.020;6.576;2022-10-13T08:50:38;12.82;;;6.05;;
56114;SDS011;41988;53.020;6.576;2022-10-13T08:59:02;14.07;;;6.60;;
56114;SDS011;41988;53.020;6.576;2022-10-13T09:01:49;13.35;;;7.25;;
56114;SDS011;41988;53.020;6.576;2022-10-13T09:04:38;11.68;;;6.20;;
56114;SDS011;41988;53.020;6.576;2022-10-13T09:07:25;13.77;;;6.95;;
56114;SDS011;41988;53.020;6.576;2022-10-13T09:10:11;13.88;;;7.72;;
56114;SDS011;41988;53.020;6.576;2022-10-13T09:12:57;15.20;;;6.90;;
56114;SDS011;41988;53.020;6.576;2022-10-13T09:15:45;21.25;;;7.72;;
56114;SDS011;41988;53.020;6.576;2022-10-13T09:18:30;16.15;;;7.28;;
56114;SDS011;41988;53.020;6.576;2022-10-13T09:21:22;13.50;;;6.10;;
56114;SDS011;41988;53.020;6.576;2022-10-13T09:24:11;13.82;;;6.85;;
56114;SDS011;41988;53.020;6.576;2022-10-13T09:27:02;18.52;;;7.07;;
56114;SDS011;41988;53.020;6.576;2022-10-13T09:29:47;12.43;;;7.93;;
56114;SDS011;41988;53.020;6.576;2022-10-13T09:32:33;13.48;;;7.45;;
56114;SDS011;41988;53.020;6.576;2022-10-13T09:35:20;17.00;;;7.75;;
56114;SDS011;41988;53.020;6.576;2022-10-13T09:38:07;14.52;;;7.45;;
56114;SDS011;41988;53.020;6.576;2022-10-13T09:40:57;15.85;;;7.63;;
56114;SDS011;41988;53.020;6.576;2022-10-13T09:52:22;14.57;;;6.85;;
56114;SDS011;41988;53.020;6.576;2022-10-13T09:58:13;15.82;;;6.72;;
56114;SDS011;41988;53.020;6.576;2022-10-13T10:01:05;14.48;;;6.18;;
56114;SDS011;41988;53.020;6.576;2022-10-13T10:03:50;12.23;;;6.45;;
56114;SDS011;41988;53.020;6.576;2022-10-13T10:06:38;11.18;;;6.07;;
56114;SDS011;41988;53.020;6.576;2022-10-13T10:09:36;11.25;;;5.72;;
56114;SDS011;41988;53.020;6.576;2022-10-13T10:12:24;11.10;;;6.45;;
56114;SDS011;41988;53.020;6.576;2022-10-13T10:15:20;12.50;;;7.05;;
56114;SDS011;41988;53.020;6.576;2022-10-13T10:18:07;12.00;;;6.60;;
56114;SDS011;41988;53.020;6.576;2022-10-13T10:27:22;13.23;;;6.55;;
56114;SDS011;41988;53.020;6.576;2022-10-13T10:30:16;12.15;;;7.15;;
56114;SDS011;41988;53.020;6.576;2022-10-13T10:33:11;14.82;;;7.03;;
56114;SDS011;41988;53.020;6.576;2022-10-13T10:35:59;17.05;;;7.20;;
56114;SDS011;41988;53.020;6.576;2022-10-13T10:38:56;13.52;;;6.82;;
56114;SDS011;41988;53.020;6.576;2022-10-13T10:41:50;15.02;;;7.95;;
56114;SDS011;41988;53.020;6.576;2022-10-13T10:44:41;17.77;;;7.45;;
56114;SDS011;41988;53.020;6.576;2022-10-13T10:47:28;16.67;;;7.60;;
56114;SDS011;41988;53.020;6.576;2022-10-13T10:50:18;12.45;;;6.60;;
56114;SDS011;41988;53.020;6.576;2022-10-13T10:56:07;13.82;;;6.68;;
56114;SDS011;41988;53.020;6.576;2022-10-13T11:04:44;15.25;;;7.80;;
56114;SDS011;41988;53.020;6.576;2022-10-13T11:15:44;12.60;;;6.85;;
56114;SDS011;41988;53.020;6.576;2022-10-13T11:30:39;13.75;;;7.13;;
56114;SDS011;41988;53.020;6.576;2022-10-13T11:44:58;18.23;;;8.15;;
56114;SDS011;41988;53.020;6.576;2022-10-13T11:50:48;13.60;;;7.78;;
56114;SDS011;41988;53.020;6.576;2022-10-13T11:56:31;13.95;;;6.93;;
56114;SDS011;41988;53.020;6.576;2022-10-13T11:59:20;17.33;;;7.88;;
56114;SDS011;41988;53.020;6.576;2022-10-13T12:08:12;16.77;;;7.88;;
56114;SDS011;41988;53.020;6.576;2022-10-13T12:10:56;20.55;;;8.80;;
56114;SDS011;41988;53.020;6.576;2022-10-13T12:13:43;22.23;;;8.65;;
56114;SDS011;41988;53.020;6.576;2022-10-13T12:16:29;17.25;;;8.50;;
56114;SDS011;41988;53.020;6.576;2022-10-13T12:19:18;17.85;;;8.52;;
56114;SDS011;41988;53.020;6.576;2022-10-13T12:22:10;14.90;;;7.35;;
56114;SDS011;41988;53.020;6.576;2022-10-13T12:24:59;15.13;;;8.02;;
56114;SDS011;41988;53.020;6.576;2022-10-13T12:27:47;20.33;;;9.15;;
56114;SDS011;41988;53.020;6.576;2022-10-13T12:30:33;18.92;;;8.88;;
56114;SDS011;41988;53.020;6.576;2022-10-13T12:33:21;16.58;;;7.38;;
56114;SDS011;41988;53.020;6.576;2022-10-13T12:36:11;14.98;;;8.30;;
56114;SDS011;41988;53.020;6.576;2022-10-13T12:38:57;19.05;;;8.60;;
56114;SDS011;41988;53.020;6.576;2022-10-13T12:41:50;16.25;;;8.27;;
56114;SDS011;41988;53.020;6.576;2022-10-13T12:44:35;18.65;;;8.88;;
56114;SDS011;41988;53.020;6.576;2022-10-13T12:47:44;16.92;;;8.48;;
56114;SDS011;41988;53.020;6.576;2022-10-13T12:53:15;17.15;;;7.88;;
56114;SDS011;41988;53.020;6.576;2022-10-13T12:56:01;17.48;;;7.85;;
56114;SDS011;41988;53.020;6.576;2022-10-13T12:58:52;17.80;;;8.30;;
56114;SDS011;41988;53.020;6.576;2022-10-13T13:01:42;15.15;;;8.02;;
56114;SDS011;41988;53.020;6.576;2022-10-13T13:10:21;15.82;;;6.68;;
56114;SDS011;41988;53.020;6.576;2022-10-13T13:13:12;14.82;;;7.47;;
56114;SDS011;41988;53.020;6.576;2022-10-13T13:18:57;15.15;;;7.65;;
56114;SDS011;41988;53.020;6.576;2022-10-13T13:21:42;17.60;;;7.35;;
56114;SDS011;41988;53.020;6.576;2022-10-13T13:24:26;18.27;;;7.65;;
56114;SDS011;41988;53.020;6.576;2022-10-13T13:29:58;14.25;;;7.35;;
56114;SDS011;41988;53.020;6.576;2022-10-13T13:32:43;16.73;;;7.85;;
56114;SDS011;41988;53.020;6.576;2022-10-13T13:35:27;17.88;;;8.25;;
56114;SDS011;41988;53.020;6.576;2022-10-13T13:38:12;14.55;;;7.20;;
56114;SDS011;41988;53.020;6.576;2022-10-13T13:40:56;14.20;;;7.60;;
56114;SDS011;41988;53.020;6.576;2022-10-13T13:43:41;18.75;;;7.32;;
56114;SDS011;41988;53.020;6.576;2022-10-13T13:46:25;14.93;;;8.20;;
56114;SDS011;41988;53.020;6.576;2022-10-13T13:49:11;17.13;;;7.68;;
56114;SDS011;41988;53.020;6.576;2022-10-13T13:51:55;12.35;;;7.10;;
56114;SDS011;41988;53.020;6.576;2022-10-13T13:54:40;13.15;;;7.32;;
56114;SDS011;41988;53.020;6.576;2022-10-13T13:57:25;13.73;;;6.90;;
56114;SDS011;41988;53.020;6.576;2022-10-13T14:00:10;16.23;;;7.20;;
56114;SDS011;41988;53.020;6.576;2022-10-13T14:02:56;18.55;;;7.95;;
56114;SDS011;41988;53.020;6.576;2022-10-13T14:05:40;14.38;;;7.20;;
56114;SDS011;41988;53.020;6.576;2022-10-13T14:08:25;14.23;;;7.22;;
56114;SDS011;41988;53.020;6.576;2022-10-13T14:11:13;16.17;;;7.68;;
56114;SDS011;41988;53.020;6.576;2022-10-13T14:13:58;13.43;;;7.63;;
56114;SDS011;41988;53.020;6.576;2022-10-13T14:16:45;15.00;;;7.13;;
56114;SDS011;41988;53.020;6.576;2022-10-13T14:19:29;14.95;;;7.82;;
56114;SDS011;41988;53.020;6.576;2022-10-13T14:22:14;18.48;;;6.80;;
56114;SDS011;41988;53.020;6.576;2022-10-13T14:24:59;16.45;;;6.82;;
56114;SDS011;41988;53.020;6.576;2022-10-13T14:27:43;12.15;;;6.93;;
56114;SDS011;41988;53.020;6.576;2022-10-13T14:30:28;12.77;;;6.53;;
56114;SDS011;41988;53.020;6.576;2022-10-13T14:33:13;12.07;;;6.32;;
56114;SDS011;41988;53.020;6.576;2022-10-13T14:36:02;12.50;;;6.43;;
56114;SDS011;41988;53.020;6.576;2022-10-13T14:38:47;15.25;;;6.53;;
56114;SDS011;41988;53.020;6.576;2022-10-13T14:41:34;11.80;;;6.22;;
56114;SDS011;41988;53.020;6.576;2022-10-13T14:44:18;12.65;;;5.78;;
56114;SDS011;41988;53.020;6.576;2022-10-13T14:47:03;11.05;;;6.38;;
56114;SDS011;41988;53.020;6.576;2022-10-13T14:49:47;11.88;;;6.10;;
56114;SDS011;41988;53.020;6.576;2022-10-13T14:52:32;12.73;;;6.72;;
56114;SDS011;41988;53.020;6.576;2022-10-13T14:55:16;12.35;;;5.88;;
56114;SDS011;41988;53.020;6.576;2022-10-13T14:58:01;11.55;;;5.90;;
56114;SDS011;41988;53.020;6.576;2022-10-13T15:00:46;11.68;;;6.38;;
56114;SDS011;41988;53.020;6.576;2022-10-13T15:03:31;10.43;;;5.40;;
56114;SDS011;41988;53.020;6.576;2022-10-13T15:06:20;11.85;;;6.45;;
56114;SDS011;41988;53.020;6.576;2022-10-13T15:09:08;10.85;;;5.10;;
56114;SDS011;41988;53.020;6.576;2022-10-13T15:11:54;11.15;;;5.97;;
56114;SDS011;41988;53.020;6.576;2022-10-13T15:14:39;11.10;;;5.25;;
56114;SDS011;41988;53.020;6.576;2022-10-13T15:17:23;16.13;;;6.15;;
56114;SDS011;41988;53.020;6.576;2022-10-13T15:20:08;10.98;;;5.57;;
56114;SDS011;41988;53.020;6.576;2022-10-13T15:22:53;9.63;;;5.40;;
56114;SDS011;41988;53.020;6.576;2022-10-13T15:25:38;13.43;;;6.97;;
56114;SDS011;41988;53.020;6.576;2022-10-13T15:28:24;12.57;;;6.20;;
56114;SDS011;41988;53.020;6.576;2022-10-13T15:31:10;11.95;;;5.57;;
56114;SDS011;41988;53.020;6.576;2022-10-13T15:33:55;13.73;;;6.20;;
56114;SDS011;41988;53.020;6.576;2022-10-13T15:36:40;9.60;;;5.25;;
56114;SDS011;41988;53.020;6.576;2022-10-13T15:39:25;10.45;;;5.53;;
56114;SDS011;41988;53.020;6.576;2022-10-13T15:42:10;6.95;;;4.20;;
56114;SDS011;41988;53.020;6.576;2022-10-13T15:44:55;9.63;;;5.72;;
56114;SDS011;41988;53.020;6.576;2022-10-13T15:47:39;9.88;;;5.63;;
56114;SDS011;41988;53.020;6.576;2022-10-13T15:50:24;8.77;;;4.70;;
56114;SDS011;41988;53.020;6.576;2022-10-13T15:53:14;7.82;;;4.60;;
56114;SDS011;41988;53.020;6.576;2022-10-13T15:56:00;15.27;;;5.72;;
56114;SDS011;41988;53.020;6.576;2022-10-13T15:58:45;11.45;;;5.95;;
56114;SDS011;41988;53.020;6.576;2022-10-13T16:01:29;11.00;;;5.78;;
56114;SDS011;41988;53.020;6.576;2022-10-13T16:04:14;12.43;;;6.00;;
56114;SDS011;41988;53.020;6.576;2022-10-13T16:06:58;11.85;;;5.90;;
56114;SDS011;41988;53.020;6.576;2022-10-13T16:09:43;10.45;;;5.53;;
56114;SDS011;41988;53.020;6.576;2022-10-13T16:12:28;9.57;;;5.53;;
56114;SDS011;41988;53.020;6.576;2022-10-13T16:15:12;13.13;;;5.63;;
56114;SDS011;41988;53.020;6.576;2022-10-13T16:17:57;13.15;;;5.53;;
56114;SDS011;41988;53.020;6.576;2022-10-13T16:20:42;12.40;;;5.53;;
56114;SDS011;41988;53.020;6.576;2022-10-13T16:23:28;14.07;;;6.45;;
56114;SDS011;41988;53.020;6.576;2022-10-13T16:26:12;11.50;;;5.53;;
56114;SDS011;41988;53.020;6.576;2022-10-13T16:28:57;12.23;;;6.22;;
56114;SDS011;41988;53.020;6.576;2022-10-13T16:31:42;10.55;;;5.57;;
56114;SDS011;41988;53.020;6.576;2022-10-13T16:34:27;11.43;;;5.60;;
56114;SDS011;41988;53.020;6.576;2022-10-13T16:37:12;15.05;;;5.95;;
56114;SDS011;41988;53.020;6.576;2022-10-13T16:40:00;12.88;;;6.00;;
56114;SDS011;41988;53.020;6.576;2022-10-13T16:42:45;12.90;;;6.18;;
56114;SDS011;41988;53.020;6.576;2022-10-13T16:45:32;11.23;;;5.68;;
56114;SDS011;41988;53.020;6.576;2022-10-13T16:48:17;11.73;;;6.40;;
56114;SDS011;41988;53.020;6.576;2022-10-13T16:51:06;14.45;;;6.60;;
56114;SDS011;41988;53.020;6.576;2022-10-13T16:53:52;11.18;;;6.35;;
56114;SDS011;41988;53.020;6.576;2022-10-13T16:56:37;12.85;;;6.40;;
56114;SDS011;41988;53.020;6.576;2022-10-13T16:59:21;12.23;;;6.38;;
56114;SDS011;41988;53.020;6.576;2022-10-13T17:02:08;15.85;;;6.25;;
56114;SDS011;41988;53.020;6.576;2022-10-13T17:04:55;10.75;;;5.82;;
56114;SDS011;41988;53.020;6.576;2022-10-13T17:07:40;12.93;;;6.65;;
56114;SDS011;41988;53.020;6.576;2022-10-13T17:10:24;14.48;;;6.72;;
56114;SDS011;41988;53.020;6.576;2022-10-13T17:13:09;13.95;;;6.43;;
56114;SDS011;41988;53.020;6.576;2022-10-13T17:15:54;13.75;;;6.72;;
56114;SDS011;41988;53.020;6.576;2022-10-13T17:18:39;11.10;;;6.35;;
56114;SDS011;41988;53.020;6.576;2022-10-13T17:21:24;17.17;;;7.45;;
56114;SDS011;41988;53.020;6.576;2022-10-13T17:24:09;14.48;;;7.03;;
56114;SDS011;41988;53.020;6.576;2022-10-13T17:26:53;11.50;;;7.50;;
56114;SDS011;41988;53.020;6.576;2022-10-13T17:29:38;15.60;;;8.15;;
56114;SDS011;41988;53.020;6.576;2022-10-13T17:32:22;12.88;;;7.90;;
56114;SDS011;41988;53.020;6.576;2022-10-13T17:35:07;13.40;;;7.93;;
56114;SDS011;41988;53.020;6.576;2022-10-13T17:37:56;14.05;;;7.75;;
56114;SDS011;41988;53.020;6.576;2022-10-13T17:40:41;16.27;;;8.32;;
56114;SDS011;41988;53.020;6.576;2022-10-13T17:43:28;14.23;;;7.80;;
56114;SDS011;41988;53.020;6.576;2022-10-13T17:46:18;14.13;;;7.60;;
56114;SDS011;41988;53.020;6.576;2022-10-13T17:49:04;15.02;;;6.95;;
56114;SDS011;41988;53.020;6.576;2022-10-13T17:51:50;11.75;;;7.32;;
56114;SDS011;41988;53.020;6.576;2022-10-13T17:54:35;10.88;;;6.30;;
56114;SDS011;41988;53.020;6.576;2022-10-13T17:57:20;20.30;;;8.13;;
56114;SDS011;41988;53.020;6.576;2022-10-13T18:00:05;13.10;;;7.25;;
56114;SDS011;41988;53.020;6.576;2022-10-13T18:02:50;11.05;;;7.25;;
56114;SDS011;41988;53.020;6.576;2022-10-13T18:05:40;12.98;;;7.07;;
56114;SDS011;41988;53.020;6.576;2022-10-13T18:08:25;12.98;;;6.60;;
56114;SDS011;41988;53.020;6.576;2022-10-13T18:11:10;14.18;;;6.38;;
56114;SDS011;41988;53.020;6.576;2022-10-13T18:13:57;11.88;;;6.68;;
56114;SDS011;41988;53.020;6.576;2022-10-13T18:16:41;13.25;;;7.03;;
56114;SDS011;41988;53.020;6.576;2022-10-13T18:19:26;13.30;;;6.85;;
56114;SDS011;41988;53.020;6.576;2022-10-13T18:22:10;12.57;;;6.82;;
56114;SDS011;41988;53.020;6.576;2022-10-13T18:24:57;12.15;;;6.53;;
56114;SDS011;41988;53.020;6.576;2022-10-13T18:27:45;11.02;;;6.80;;
56114;SDS011;41988;53.020;6.576;2022-10-13T18:30:30;13.38;;;7.25;;